sensor_id;sensor_type;location;lat;lon;timestamp;temperature;humidity
7159;DHT22;63175;52.374;13.132;2024-02-14T00:01:11;4.40;99.90
7159;DHT22;63175;52.374;13.132;2024-02-14T00:03:39;4.40;99.90
7159;DHT22;63175;52.374;13.132;2024-02-14T00:06:06;4.40;99.90
7159;DHT22;63175;52.374;13.132;2024-02-14T00:08:33;4.40;99.90
7159;DHT22;63175;52.374;13.132;2024-02-14T00:10:59;4.30;99.90
7159;DHT22;63175;52.374;13.132;2024-02-14T00:13:27;4.30;99.90
7159;DHT22;63175;52.374;13.132;2024-02-14T00:15:56;4.30;99.90
7159;DHT22;63175;52.374;13.132;2024-02-14T00:18:23;4.30;99.90
7159;DHT22;63175;52.374;13.132;2024-02-14T00:20:50;4.30;99.90
7159;DHT22;63175;52.374;13.132;2024-02-14T00:23:17;4.30;99.90
7159;DHT22;63175;52.374;13.132;2024-02-14T00:25:44;4.30;99.90
7159;DHT22;63175;52.374;13.132;2024-02-14T00:28:11;4.30;99.90
7159;DHT22;63175;52.374;13.132;2024-02-14T00:30:38;4.40;99.90
7159;DHT22;63175;52.374;13.132;2024-02-14T00:33:06;4.40;99.90
7159;DHT22;63175;52.374;13.132;2024-02-14T00:35:33;4.40;99.90
7159;DHT22;63175;52.374;13.132;2024-02-14T00:38:00;4.40;99.90
7159;DHT22;63175;52.374;13.132;2024-02-14T00:40:26;4.40;99.90
7159;DHT22;63175;52.374;13.132;2024-02-14T00:42:53;4.40;99.90
7159;DHT22;63175;52.374;13.132;2024-02-14T00:45:20;4.40;99.90
7159;DHT22;63175;52.374;13.132;2024-02-14T00:47:47;4.40;99.90
7159;DHT22;63175;52.374;13.132;2024-02-14T00:50:15;4.40;99.90
7159;DHT22;63175;52.374;13.132;2024-02-14T00:52:42;4.30;99.90
7159;DHT22;63175;52.374;13.132;2024-02-14T00:55:09;4.40;99.90
7159;DHT22;63175;52.374;13.132;2024-02-14T00:57:36;4.30;99.90
7159;DHT22;63175;52.374;13.132;2024-02-14T01:00:05;4.30;99.90
7159;DHT22;63175;52.374;13.132;2024-02-14T01:02:32;4.30;99.90
7159;DHT22;63175;52.374;13.132;2024-02-14T01:04:59;4.30;99.90
7159;DHT22;63175;52.374;13.132;2024-02-14T01:07:27;4.30;99.90
7159;DHT22;63175;52.374;13.132;2024-02-14T01:09:54;4.30;99.90
7159;DHT22;63175;52.374;13.132;2024-02-14T01:12:21;4.30;99.90
7159;DHT22;63175;52.374;13.132;2024-02-14T01:14:48;4.30;99.90
7159;DHT22;63175;52.374;13.132;2024-02-14T01:17:15;4.30;99.90
7159;DHT22;63175;52.374;13.132;2024-02-14T01:19:42;4.30;99.90
7159;DHT22;63175;52.374;13.132;2024-02-14T01:22:09;4.30;99.90
7159;DHT22;63175;52.374;13.132;2024-02-14T01:24:37;4.30;99.90
7159;DHT22;63175;52.374;13.132;2024-02-14T01:27:04;4.30;99.90
7159;DHT22;63175;52.374;13.132;2024-02-14T01:29:34;4.30;99.90
7159;DHT22;63175;52.374;13.132;2024-02-14T01:32:00;4.30;99.90
7159;DHT22;63175;52.374;13.132;2024-02-14T01:34:29;4.30;99.90
7159;DHT22;63175;52.374;13.132;2024-02-14T01:36:56;4.30;99.90
7159;DHT22;63175;52.374;13.132;2024-02-14T01:39:23;4.20;99.90
7159;DHT22;63175;52.374;13.132;2024-02-14T01:41:52;4.20;99.90
7159;DHT22;63175;52.374;13.132;2024-02-14T01:44:18;4.20;99.90
7159;DHT22;63175;52.374;13.132;2024-02-14T01:46:46;4.20;99.90
7159;DHT22;63175;52.374;13.132;2024-02-14T01:49:13;4.20;99.90
7159;DHT22;63175;52.374;13.132;2024-02-14T01:51:42;4.20;99.90
7159;DHT22;63175;52.374;13.132;2024-02-14T01:54:10;4.20;99.90
7159;DHT22;63175;52.374;13.132;2024-02-14T01:56:38;4.20;99.90
7159;DHT22;63175;52.374;13.132;2024-02-14T01:59:08;4.20;99.90
7159;DHT22;63175;52.374;13.132;2024-02-14T02:01:35;4.10;99.90
7159;DHT22;63175;52.374;13.132;2024-02-14T02:04:03;4.10;99.90
7159;DHT22;63175;52.374;13.132;2024-02-14T02:06:30;4.10;99.90
7159;DHT22;63175;52.374;13.132;2024-02-14T02:08:57;4.10;99.90
7159;DHT22;63175;52.374;13.132;2024-02-14T02:11:24;4.10;99.90
7159;DHT22;63175;52.374;13.132;2024-02-14T02:13:51;4.10;99.90
7159;DHT22;63175;52.374;13.132;2024-02-14T02:16:20;4.10;99.90
7159;DHT22;63175;52.374;13.132;2024-02-14T02:18:47;4.10;99.90
7159;DHT22;63175;52.374;13.132;2024-02-14T02:21:15;4.10;99.90
7159;DHT22;63175;52.374;13.132;2024-02-14T02:23:46;4.10;99.90
7159;DHT22;63175;52.374;13.132;2024-02-14T02:26:13;4.10;99.90
7159;DHT22;63175;52.374;13.132;2024-02-14T02:28:40;4.10;99.90
7159;DHT22;63175;52.374;13.132;2024-02-14T02:31:08;4.10;99.90
7159;DHT22;63175;52.374;13.132;2024-02-14T02:33:35;4.10;99.90
7159;DHT22;63175;52.374;13.132;2024-02-14T02:36:03;4.10;99.90
7159;DHT22;63175;52.374;13.132;2024-02-14T02:38:30;4.10;99.90
7159;DHT22;63175;52.374;13.132;2024-02-14T02:40:58;4.10;99.90
7159;DHT22;63175;52.374;13.132;2024-02-14T02:43:26;4.10;99.90
7159;DHT22;63175;52.374;13.132;2024-02-14T02:45:53;4.00;99.90
7159;DHT22;63175;52.374;13.132;2024-02-14T02:48:20;4.00;99.90
7159;DHT22;63175;52.374;13.132;2024-02-14T02:50:48;4.00;99.90
7159;DHT22;63175;52.374;13.132;2024-02-14T02:53:16;4.10;99.90
7159;DHT22;63175;52.374;13.132;2024-02-14T02:55:43;4.10;99.90
7159;DHT22;63175;52.374;13.132;2024-02-14T02:58:11;4.10;99.90
7159;DHT22;63175;52.374;13.132;2024-02-14T03:00:39;4.10;99.90
7159;DHT22;63175;52.374;13.132;2024-02-14T03:03:07;4.10;99.90
7159;DHT22;63175;52.374;13.132;2024-02-14T03:05:34;4.10;99.90
7159;DHT22;63175;52.374;13.132;2024-02-14T03:08:01;4.10;99.90
7159;DHT22;63175;52.374;13.132;2024-02-14T03:10:28;4.00;99.90
7159;DHT22;63175;52.374;13.132;2024-02-14T03:12:55;4.00;99.90
7159;DHT22;63175;52.374;13.132;2024-02-14T03:15:23;4.10;99.90
7159;DHT22;63175;52.374;13.132;2024-02-14T03:17:51;4.10;99.90
7159;DHT22;63175;52.374;13.132;2024-02-14T03:20:18;4.10;99.90
7159;DHT22;63175;52.374;13.132;2024-02-14T03:22:45;4.10;99.90
7159;DHT22;63175;52.374;13.132;2024-02-14T03:25:13;4.00;99.90
7159;DHT22;63175;52.374;13.132;2024-02-14T03:27:41;4.00;99.90
7159;DHT22;63175;52.374;13.132;2024-02-14T03:30:11;4.00;99.90
7159;DHT22;63175;52.374;13.132;2024-02-14T03:32:43;4.00;99.90
7159;DHT22;63175;52.374;13.132;2024-02-14T03:35:10;4.00;99.90
7159;DHT22;63175;52.374;13.132;2024-02-14T03:37:38;3.90;99.90
7159;DHT22;63175;52.374;13.132;2024-02-14T03:40:07;3.90;99.90
7159;DHT22;63175;52.374;13.132;2024-02-14T03:42:35;3.90;99.90
7159;DHT22;63175;52.374;13.132;2024-02-14T03:45:06;3.90;99.90
7159;DHT22;63175;52.374;13.132;2024-02-14T03:47:33;4.00;99.90
7159;DHT22;63175;52.374;13.132;2024-02-14T03:50:01;4.00;99.90
7159;DHT22;63175;52.374;13.132;2024-02-14T03:52:30;4.00;99.90
7159;DHT22;63175;52.374;13.132;2024-02-14T03:54:58;4.00;99.90
7159;DHT22;63175;52.374;13.132;2024-02-14T03:57:25;4.00;99.90
7159;DHT22;63175;52.374;13.132;2024-02-14T03:59:54;4.00;99.90
7159;DHT22;63175;52.374;13.132;2024-02-14T04:02:21;4.00;99.90
7159;DHT22;63175;52.374;13.132;2024-02-14T04:04:49;3.90;99.90
7159;DHT22;63175;52.374;13.132;2024-02-14T04:07:17;4.00;99.90
7159;DHT22;63175;52.374;13.132;2024-02-14T04:09:44;4.00;99.90
7159;DHT22;63175;52.374;13.132;2024-02-14T04:12:11;4.00;99.90
7159;DHT22;63175;52.374;13.132;2024-02-14T04:14:39;4.00;99.90
7159;DHT22;63175;52.374;13.132;2024-02-14T04:17:06;4.00;99.90
7159;DHT22;63175;52.374;13.132;2024-02-14T04:19:34;4.10;99.90
7159;DHT22;63175;52.374;13.132;2024-02-14T04:22:01;4.10;99.90
7159;DHT22;63175;52.374;13.132;2024-02-14T04:24:29;4.00;99.90
7159;DHT22;63175;52.374;13.132;2024-02-14T04:26:56;4.00;99.90
7159;DHT22;63175;52.374;13.132;2024-02-14T04:29:23;4.00;99.90
7159;DHT22;63175;52.374;13.132;2024-02-14T04:31:50;4.00;99.90
7159;DHT22;63175;52.374;13.132;2024-02-14T04:34:18;4.00;99.90
7159;DHT22;63175;52.374;13.132;2024-02-14T04:36:45;4.00;99.90
7159;DHT22;63175;52.374;13.132;2024-02-14T04:39:12;4.00;99.90
7159;DHT22;63175;52.374;13.132;2024-02-14T04:41:40;4.00;99.90
7159;DHT22;63175;52.374;13.132;2024-02-14T04:44:07;4.10;99.90
7159;DHT22;63175;52.374;13.132;2024-02-14T04:46:34;4.10;99.90
7159;DHT22;63175;52.374;13.132;2024-02-14T04:49:01;4.10;99.90
7159;DHT22;63175;52.374;13.132;2024-02-14T04:51:28;4.10;99.90
7159;DHT22;63175;52.374;13.132;2024-02-14T04:53:55;4.20;99.90
7159;DHT22;63175;52.374;13.132;2024-02-14T04:56:24;4.20;99.90
7159;DHT22;63175;52.374;13.132;2024-02-14T04:58:52;4.20;99.90
7159;DHT22;63175;52.374;13.132;2024-02-14T05:01:19;4.30;99.90
7159;DHT22;63175;52.374;13.132;2024-02-14T05:03:46;4.30;99.90
7159;DHT22;63175;52.374;13.132;2024-02-14T05:06:13;4.30;99.90
7159;DHT22;63175;52.374;13.132;2024-02-14T05:08:39;4.30;99.90
7159;DHT22;63175;52.374;13.132;2024-02-14T05:11:06;4.30;99.90
7159;DHT22;63175;52.374;13.132;2024-02-14T05:13:33;4.30;99.90
7159;DHT22;63175;52.374;13.132;2024-02-14T05:16:04;4.30;99.90
7159;DHT22;63175;52.374;13.132;2024-02-14T05:18:31;4.30;99.90
7159;DHT22;63175;52.374;13.132;2024-02-14T05:20:58;4.30;99.90
7159;DHT22;63175;52.374;13.132;2024-02-14T05:23:25;4.30;99.90
7159;DHT22;63175;52.374;13.132;2024-02-14T05:25:52;4.30;99.90
7159;DHT22;63175;52.374;13.132;2024-02-14T05:28:19;4.30;99.90
7159;DHT22;63175;52.374;13.132;2024-02-14T05:30:46;4.30;99.90
7159;DHT22;63175;52.374;13.132;2024-02-14T05:33:14;4.30;99.90
7159;DHT22;63175;52.374;13.132;2024-02-14T05:35:41;4.40;99.90
7159;DHT22;63175;52.374;13.132;2024-02-14T05:38:08;4.30;99.90
7159;DHT22;63175;52.374;13.132;2024-02-14T05:40:35;4.30;99.90
7159;DHT22;63175;52.374;13.132;2024-02-14T05:43:05;4.30;99.90
7159;DHT22;63175;52.374;13.132;2024-02-14T05:45:32;4.30;99.90
7159;DHT22;63175;52.374;13.132;2024-02-14T05:47:59;4.30;99.90
7159;DHT22;63175;52.374;13.132;2024-02-14T05:50:28;4.30;99.90
7159;DHT22;63175;52.374;13.132;2024-02-14T05:52:54;4.30;99.90
7159;DHT22;63175;52.374;13.132;2024-02-14T05:55:22;4.30;99.90
7159;DHT22;63175;52.374;13.132;2024-02-14T05:57:50;4.30;99.90
7159;DHT22;63175;52.374;13.132;2024-02-14T06:00:17;4.30;99.90
7159;DHT22;63175;52.374;13.132;2024-02-14T06:02:45;4.30;99.90
7159;DHT22;63175;52.374;13.132;2024-02-14T06:05:13;4.30;99.90
7159;DHT22;63175;52.374;13.132;2024-02-14T06:07:41;4.30;99.90
7159;DHT22;63175;52.374;13.132;2024-02-14T06:10:11;4.30;99.90
7159;DHT22;63175;52.374;13.132;2024-02-14T06:12:37;4.40;99.90
7159;DHT22;63175;52.374;13.132;2024-02-14T06:15:07;4.30;99.90
7159;DHT22;63175;52.374;13.132;2024-02-14T06:17:34;4.40;99.90
7159;DHT22;63175;52.374;13.132;2024-02-14T06:20:01;4.40;99.90
7159;DHT22;63175;52.374;13.132;2024-02-14T06:22:31;4.40;99.90
7159;DHT22;63175;52.374;13.132;2024-02-14T06:25:00;4.40;99.90
7159;DHT22;63175;52.374;13.132;2024-02-14T06:27:26;4.50;99.90
7159;DHT22;63175;52.374;13.132;2024-02-14T06:29:53;4.50;99.90
7159;DHT22;63175;52.374;13.132;2024-02-14T06:32:21;4.40;99.90
7159;DHT22;63175;52.374;13.132;2024-02-14T06:34:47;4.50;99.90
7159;DHT22;63175;52.374;13.132;2024-02-14T06:37:14;4.50;99.90
7159;DHT22;63175;52.374;13.132;2024-02-14T06:39:41;4.50;99.90
7159;DHT22;63175;52.374;13.132;2024-02-14T06:42:09;4.50;99.90
7159;DHT22;63175;52.374;13.132;2024-02-14T06:44:36;4.50;99.90
7159;DHT22;63175;52.374;13.132;2024-02-14T06:47:03;4.50;99.90
7159;DHT22;63175;52.374;13.132;2024-02-14T06:49:30;4.60;99.90
7159;DHT22;63175;52.374;13.132;2024-02-14T06:51:57;4.60;99.90
7159;DHT22;63175;52.374;13.132;2024-02-14T06:54:24;4.60;99.90
7159;DHT22;63175;52.374;13.132;2024-02-14T06:56:50;4.70;99.90
7159;DHT22;63175;52.374;13.132;2024-02-14T06:59:19;4.70;99.90
7159;DHT22;63175;52.374;13.132;2024-02-14T07:01:45;4.70;99.90
7159;DHT22;63175;52.374;13.132;2024-02-14T07:04:12;4.80;99.90
7159;DHT22;63175;52.374;13.132;2024-02-14T07:06:39;4.80;99.90
7159;DHT22;63175;52.374;13.132;2024-02-14T07:09:06;4.80;99.90
7159;DHT22;63175;52.374;13.132;2024-02-14T07:11:33;4.80;99.90
7159;DHT22;63175;52.374;13.132;2024-02-14T07:14:00;4.90;99.90
7159;DHT22;63175;52.374;13.132;2024-02-14T07:16:28;4.90;99.90
7159;DHT22;63175;52.374;13.132;2024-02-14T07:18:55;4.90;99.90
7159;DHT22;63175;52.374;13.132;2024-02-14T07:21:22;4.90;99.90
7159;DHT22;63175;52.374;13.132;2024-02-14T07:23:49;5.00;99.90
7159;DHT22;63175;52.374;13.132;2024-02-14T07:26:15;5.00;99.90
7159;DHT22;63175;52.374;13.132;2024-02-14T07:28:42;5.00;99.90
7159;DHT22;63175;52.374;13.132;2024-02-14T07:31:10;5.10;99.90
7159;DHT22;63175;52.374;13.132;2024-02-14T07:33:38;5.10;99.90
7159;DHT22;63175;52.374;13.132;2024-02-14T07:36:05;5.20;99.90
7159;DHT22;63175;52.374;13.132;2024-02-14T07:38:32;5.20;99.90
7159;DHT22;63175;52.374;13.132;2024-02-14T07:40:59;5.20;99.90
7159;DHT22;63175;52.374;13.132;2024-02-14T07:43:26;5.30;99.90
7159;DHT22;63175;52.374;13.132;2024-02-14T07:45:53;5.30;99.90
7159;DHT22;63175;52.374;13.132;2024-02-14T07:48:20;5.40;99.90
7159;DHT22;63175;52.374;13.132;2024-02-14T07:50:49;5.40;99.90
7159;DHT22;63175;52.374;13.132;2024-02-14T07:53:16;5.40;99.90
7159;DHT22;63175;52.374;13.132;2024-02-14T07:55:42;5.40;99.90
7159;DHT22;63175;52.374;13.132;2024-02-14T07:58:09;5.50;99.90
7159;DHT22;63175;52.374;13.132;2024-02-14T08:00:36;5.50;99.90
7159;DHT22;63175;52.374;13.132;2024-02-14T08:03:03;5.60;99.90
7159;DHT22;63175;52.374;13.132;2024-02-14T08:05:31;5.60;99.90
7159;DHT22;63175;52.374;13.132;2024-02-14T08:08:00;5.60;99.90
7159;DHT22;63175;52.374;13.132;2024-02-14T08:10:27;5.70;99.90
7159;DHT22;63175;52.374;13.132;2024-02-14T08:12:54;5.70;99.90
7159;DHT22;63175;52.374;13.132;2024-02-14T08:15:21;5.70;99.90
7159;DHT22;63175;52.374;13.132;2024-02-14T08:17:47;5.80;99.90
7159;DHT22;63175;52.374;13.132;2024-02-14T08:20:14;5.80;99.90
7159;DHT22;63175;52.374;13.132;2024-02-14T08:22:41;5.80;99.90
7159;DHT22;63175;52.374;13.132;2024-02-14T08:25:10;5.80;99.90
7159;DHT22;63175;52.374;13.132;2024-02-14T08:27:37;5.80;99.90
7159;DHT22;63175;52.374;13.132;2024-02-14T08:30:04;5.90;99.90
7159;DHT22;63175;52.374;13.132;2024-02-14T08:32:33;5.90;99.90
7159;DHT22;63175;52.374;13.132;2024-02-14T08:34:59;5.90;99.90
7159;DHT22;63175;52.374;13.132;2024-02-14T08:37:27;5.90;99.90
7159;DHT22;63175;52.374;13.132;2024-02-14T08:39:53;5.90;99.90
7159;DHT22;63175;52.374;13.132;2024-02-14T08:42:22;5.90;99.90
7159;DHT22;63175;52.374;13.132;2024-02-14T08:44:48;6.00;99.90
7159;DHT22;63175;52.374;13.132;2024-02-14T08:47:16;6.00;99.90
7159;DHT22;63175;52.374;13.132;2024-02-14T08:49:43;6.10;99.90
7159;DHT22;63175;52.374;13.132;2024-02-14T08:52:09;6.20;99.90
7159;DHT22;63175;52.374;13.132;2024-02-14T08:54:36;6.20;99.90
7159;DHT22;63175;52.374;13.132;2024-02-14T08:57:04;6.20;99.90
7159;DHT22;63175;52.374;13.132;2024-02-14T08:59:32;6.20;99.90
7159;DHT22;63175;52.374;13.132;2024-02-14T09:01:59;6.20;99.90
7159;DHT22;63175;52.374;13.132;2024-02-14T09:04:26;6.20;99.90
7159;DHT22;63175;52.374;13.132;2024-02-14T09:06:54;6.20;99.90
7159;DHT22;63175;52.374;13.132;2024-02-14T09:09:20;6.20;99.90
7159;DHT22;63175;52.374;13.132;2024-02-14T09:11:47;6.20;99.90
7159;DHT22;63175;52.374;13.132;2024-02-14T09:14:14;6.20;99.90
7159;DHT22;63175;52.374;13.132;2024-02-14T09:16:42;6.20;99.90
7159;DHT22;63175;52.374;13.132;2024-02-14T09:19:11;6.10;99.90
7159;DHT22;63175;52.374;13.132;2024-02-14T09:21:38;6.10;99.90
7159;DHT22;63175;52.374;13.132;2024-02-14T09:24:05;6.20;99.90
7159;DHT22;63175;52.374;13.132;2024-02-14T09:26:32;6.20;99.90
7159;DHT22;63175;52.374;13.132;2024-02-14T09:28:59;6.20;99.90
7159;DHT22;63175;52.374;13.132;2024-02-14T09:31:26;6.20;99.90
7159;DHT22;63175;52.374;13.132;2024-02-14T09:33:54;6.20;99.90
7159;DHT22;63175;52.374;13.132;2024-02-14T09:36:23;6.20;99.90
7159;DHT22;63175;52.374;13.132;2024-02-14T09:38:51;6.20;99.90
7159;DHT22;63175;52.374;13.132;2024-02-14T09:41:22;6.20;99.90
7159;DHT22;63175;52.374;13.132;2024-02-14T09:43:52;6.20;99.90
7159;DHT22;63175;52.374;13.132;2024-02-14T09:46:19;6.20;99.90
7159;DHT22;63175;52.374;13.132;2024-02-14T09:48:46;6.20;99.90
7159;DHT22;63175;52.374;13.132;2024-02-14T09:51:14;6.20;99.90
7159;DHT22;63175;52.374;13.132;2024-02-14T09:53:41;6.20;99.90
7159;DHT22;63175;52.374;13.132;2024-02-14T09:56:10;6.20;99.90
7159;DHT22;63175;52.374;13.132;2024-02-14T09:58:40;6.20;99.90
7159;DHT22;63175;52.374;13.132;2024-02-14T10:01:07;6.20;99.90
7159;DHT22;63175;52.374;13.132;2024-02-14T10:03:34;6.30;99.90
7159;DHT22;63175;52.374;13.132;2024-02-14T10:06:02;6.30;99.90
7159;DHT22;63175;52.374;13.132;2024-02-14T10:08:31;6.40;99.90
7159;DHT22;63175;52.374;13.132;2024-02-14T10:10:58;6.40;99.90
7159;DHT22;63175;52.374;13.132;2024-02-14T10:13:27;6.50;99.90
7159;DHT22;63175;52.374;13.132;2024-02-14T10:15:55;6.60;99.90
7159;DHT22;63175;52.374;13.132;2024-02-14T10:18:22;6.60;99.90
7159;DHT22;63175;52.374;13.132;2024-02-14T10:20:54;6.60;99.90
7159;DHT22;63175;52.374;13.132;2024-02-14T10:23:21;6.70;99.90
7159;DHT22;63175;52.374;13.132;2024-02-14T10:25:50;6.80;99.90
7159;DHT22;63175;52.374;13.132;2024-02-14T10:28:17;6.80;99.90
7159;DHT22;63175;52.374;13.132;2024-02-14T10:30:46;6.90;99.90
7159;DHT22;63175;52.374;13.132;2024-02-14T10:33:12;6.90;99.90
7159;DHT22;63175;52.374;13.132;2024-02-14T10:35:41;7.00;99.90
7159;DHT22;63175;52.374;13.132;2024-02-14T10:38:09;7.00;99.90
7159;DHT22;63175;52.374;13.132;2024-02-14T10:40:36;7.10;99.90
7159;DHT22;63175;52.374;13.132;2024-02-14T10:43:05;7.20;99.90
7159;DHT22;63175;52.374;13.132;2024-02-14T10:45:32;7.20;99.90
7159;DHT22;63175;52.374;13.132;2024-02-14T10:48:00;7.20;99.90
7159;DHT22;63175;52.374;13.132;2024-02-14T10:50:28;7.20;99.90
7159;DHT22;63175;52.374;13.132;2024-02-14T10:52:57;7.10;99.90
7159;DHT22;63175;52.374;13.132;2024-02-14T10:55:30;7.20;99.90
7159;DHT22;63175;52.374;13.132;2024-02-14T10:57:57;7.20;99.90
7159;DHT22;63175;52.374;13.132;2024-02-14T11:00:27;7.20;99.90
7159;DHT22;63175;52.374;13.132;2024-02-14T11:02:54;7.20;99.90
7159;DHT22;63175;52.374;13.132;2024-02-14T11:05:21;7.30;99.90
7159;DHT22;63175;52.374;13.132;2024-02-14T11:07:49;7.40;99.90
7159;DHT22;63175;52.374;13.132;2024-02-14T11:10:20;7.40;99.90
7159;DHT22;63175;52.374;13.132;2024-02-14T11:12:48;7.50;99.90
7159;DHT22;63175;52.374;13.132;2024-02-14T11:15:17;7.50;99.90
7159;DHT22;63175;52.374;13.132;2024-02-14T11:17:46;7.50;99.90
7159;DHT22;63175;52.374;13.132;2024-02-14T11:20:18;7.60;99.90
7159;DHT22;63175;52.374;13.132;2024-02-14T11:22:54;7.60;99.90
7159;DHT22;63175;52.374;13.132;2024-02-14T11:25:23;7.50;99.90
7159;DHT22;63175;52.374;13.132;2024-02-14T11:27:51;7.50;99.90
7159;DHT22;63175;52.374;13.132;2024-02-14T11:30:28;7.60;99.90
7159;DHT22;63175;52.374;13.132;2024-02-14T11:33:12;7.60;99.90
7159;DHT22;63175;52.374;13.132;2024-02-14T11:35:40;7.60;99.90
7159;DHT22;63175;52.374;13.132;2024-02-14T11:38:08;7.60;99.90
7159;DHT22;63175;52.374;13.132;2024-02-14T11:40:35;7.60;99.90
7159;DHT22;63175;52.374;13.132;2024-02-14T11:43:04;7.70;99.90
7159;DHT22;63175;52.374;13.132;2024-02-14T11:45:31;7.70;99.90
7159;DHT22;63175;52.374;13.132;2024-02-14T11:47:59;7.70;99.90
7159;DHT22;63175;52.374;13.132;2024-02-14T11:50:27;7.70;99.90
7159;DHT22;63175;52.374;13.132;2024-02-14T11:52:54;7.80;99.90
7159;DHT22;63175;52.374;13.132;2024-02-14T11:55:27;7.80;99.90
7159;DHT22;63175;52.374;13.132;2024-02-14T11:57:54;7.80;99.90
7159;DHT22;63175;52.374;13.132;2024-02-14T12:00:22;7.90;99.90
7159;DHT22;63175;52.374;13.132;2024-02-14T12:02:50;7.90;99.90
7159;DHT22;63175;52.374;13.132;2024-02-14T12:05:19;8.00;99.90
7159;DHT22;63175;52.374;13.132;2024-02-14T12:07:46;8.00;99.90
7159;DHT22;63175;52.374;13.132;2024-02-14T12:10:13;8.10;99.90
7159;DHT22;63175;52.374;13.132;2024-02-14T12:12:44;8.10;99.90
7159;DHT22;63175;52.374;13.132;2024-02-14T12:15:11;8.10;99.90
7159;DHT22;63175;52.374;13.132;2024-02-14T12:17:40;8.20;99.90
7159;DHT22;63175;52.374;13.132;2024-02-14T12:20:11;8.20;99.90
7159;DHT22;63175;52.374;13.132;2024-02-14T12:22:40;8.20;99.90
7159;DHT22;63175;52.374;13.132;2024-02-14T12:25:08;8.30;99.90
7159;DHT22;63175;52.374;13.132;2024-02-14T12:27:36;8.30;99.90
7159;DHT22;63175;52.374;13.132;2024-02-14T12:30:04;8.30;99.90
7159;DHT22;63175;52.374;13.132;2024-02-14T12:32:31;8.30;99.90
7159;DHT22;63175;52.374;13.132;2024-02-14T12:34:58;8.30;99.90
7159;DHT22;63175;52.374;13.132;2024-02-14T12:37:25;8.30;99.90
7159;DHT22;63175;52.374;13.132;2024-02-14T12:39:53;8.30;99.90
7159;DHT22;63175;52.374;13.132;2024-02-14T12:42:21;8.30;99.90
7159;DHT22;63175;52.374;13.132;2024-02-14T12:44:51;8.40;99.90
7159;DHT22;63175;52.374;13.132;2024-02-14T12:47:19;8.40;99.90
7159;DHT22;63175;52.374;13.132;2024-02-14T12:49:47;8.40;99.90
7159;DHT22;63175;52.374;13.132;2024-02-14T12:52:15;8.50;99.90
7159;DHT22;63175;52.374;13.132;2024-02-14T12:54:42;8.50;99.90
7159;DHT22;63175;52.374;13.132;2024-02-14T12:57:11;8.50;99.90
7159;DHT22;63175;52.374;13.132;2024-02-14T12:59:38;8.60;99.90
7159;DHT22;63175;52.374;13.132;2024-02-14T13:02:05;8.60;99.90
7159;DHT22;63175;52.374;13.132;2024-02-14T13:04:33;8.60;99.90
7159;DHT22;63175;52.374;13.132;2024-02-14T13:07:00;8.60;99.90
7159;DHT22;63175;52.374;13.132;2024-02-14T13:09:27;8.60;99.90
7159;DHT22;63175;52.374;13.132;2024-02-14T13:11:54;8.60;99.90
7159;DHT22;63175;52.374;13.132;2024-02-14T13:14:23;8.60;99.90
7159;DHT22;63175;52.374;13.132;2024-02-14T13:16:50;8.70;99.90
7159;DHT22;63175;52.374;13.132;2024-02-14T13:19:17;8.70;99.90
7159;DHT22;63175;52.374;13.132;2024-02-14T13:21:44;8.70;99.90
7159;DHT22;63175;52.374;13.132;2024-02-14T13:24:12;8.70;99.90
7159;DHT22;63175;52.374;13.132;2024-02-14T13:26:39;8.70;99.90
7159;DHT22;63175;52.374;13.132;2024-02-14T13:29:06;8.70;99.90
7159;DHT22;63175;52.374;13.132;2024-02-14T13:31:35;8.70;99.90
7159;DHT22;63175;52.374;13.132;2024-02-14T13:34:02;8.70;99.90
7159;DHT22;63175;52.374;13.132;2024-02-14T13:36:30;8.70;99.90
7159;DHT22;63175;52.374;13.132;2024-02-14T13:38:57;8.70;99.90
7159;DHT22;63175;52.374;13.132;2024-02-14T13:41:25;8.80;99.90
7159;DHT22;63175;52.374;13.132;2024-02-14T13:43:52;8.80;99.90
7159;DHT22;63175;52.374;13.132;2024-02-14T13:46:19;8.80;99.90
7159;DHT22;63175;52.374;13.132;2024-02-14T13:48:48;8.90;99.90
7159;DHT22;63175;52.374;13.132;2024-02-14T13:51:15;8.90;99.90
7159;DHT22;63175;52.374;13.132;2024-02-14T13:53:42;8.90;99.90
7159;DHT22;63175;52.374;13.132;2024-02-14T13:56:09;8.90;99.90
7159;DHT22;63175;52.374;13.132;2024-02-14T13:58:36;9.00;99.90
7159;DHT22;63175;52.374;13.132;2024-02-14T14:01:04;9.00;99.90
7159;DHT22;63175;52.374;13.132;2024-02-14T14:03:32;9.00;99.90
7159;DHT22;63175;52.374;13.132;2024-02-14T14:06:04;9.00;99.90
7159;DHT22;63175;52.374;13.132;2024-02-14T14:08:34;9.00;99.90
7159;DHT22;63175;52.374;13.132;2024-02-14T14:11:02;9.00;99.90
7159;DHT22;63175;52.374;13.132;2024-02-14T14:13:29;9.00;99.90
7159;DHT22;63175;52.374;13.132;2024-02-14T14:15:56;8.90;99.90
7159;DHT22;63175;52.374;13.132;2024-02-14T14:18:23;9.00;99.90
7159;DHT22;63175;52.374;13.132;2024-02-14T14:20:50;9.00;99.90
7159;DHT22;63175;52.374;13.132;2024-02-14T14:23:19;9.00;99.90
7159;DHT22;63175;52.374;13.132;2024-02-14T14:25:46;9.00;99.90
7159;DHT22;63175;52.374;13.132;2024-02-14T14:28:12;9.00;99.90
7159;DHT22;63175;52.374;13.132;2024-02-14T14:30:40;9.10;99.90
7159;DHT22;63175;52.374;13.132;2024-02-14T14:33:07;9.10;99.90
7159;DHT22;63175;52.374;13.132;2024-02-14T14:35:34;9.10;99.90
7159;DHT22;63175;52.374;13.132;2024-02-14T14:38:01;9.10;99.90
7159;DHT22;63175;52.374;13.132;2024-02-14T14:40:30;9.20;99.90
7159;DHT22;63175;52.374;13.132;2024-02-14T14:42:57;9.20;99.90
7159;DHT22;63175;52.374;13.132;2024-02-14T14:45:25;9.30;99.90
7159;DHT22;63175;52.374;13.132;2024-02-14T14:47:53;9.40;99.90
7159;DHT22;63175;52.374;13.132;2024-02-14T14:50:21;9.50;99.90
7159;DHT22;63175;52.374;13.132;2024-02-14T14:52:50;9.60;99.90
7159;DHT22;63175;52.374;13.132;2024-02-14T14:55:17;9.70;99.90
7159;DHT22;63175;52.374;13.132;2024-02-14T14:57:46;9.70;99.90
7159;DHT22;63175;52.374;13.132;2024-02-14T15:00:13;9.80;99.90
7159;DHT22;63175;52.374;13.132;2024-02-14T15:02:41;9.90;99.90
7159;DHT22;63175;52.374;13.132;2024-02-14T15:05:08;9.90;99.90
7159;DHT22;63175;52.374;13.132;2024-02-14T15:07:35;9.90;99.90
7159;DHT22;63175;52.374;13.132;2024-02-14T15:10:02;9.90;99.90
7159;DHT22;63175;52.374;13.132;2024-02-14T15:12:30;9.90;99.90
7159;DHT22;63175;52.374;13.132;2024-02-14T15:14:58;9.90;99.90
7159;DHT22;63175;52.374;13.132;2024-02-14T15:17:25;9.90;99.90
7159;DHT22;63175;52.374;13.132;2024-02-14T15:19:54;9.80;99.90
7159;DHT22;63175;52.374;13.132;2024-02-14T15:22:20;9.80;99.90
7159;DHT22;63175;52.374;13.132;2024-02-14T15:24:49;9.80;99.90
7159;DHT22;63175;52.374;13.132;2024-02-14T15:27:17;9.80;99.90
7159;DHT22;63175;52.374;13.132;2024-02-14T15:29:49;9.80;99.90
7159;DHT22;63175;52.374;13.132;2024-02-14T15:32:35;9.80;99.90
7159;DHT22;63175;52.374;13.132;2024-02-14T15:35:19;9.70;99.90
7159;DHT22;63175;52.374;13.132;2024-02-14T15:37:46;9.70;99.90
7159;DHT22;63175;52.374;13.132;2024-02-14T15:40:14;9.70;99.90
7159;DHT22;63175;52.374;13.132;2024-02-14T15:42:42;9.70;99.90
7159;DHT22;63175;52.374;13.132;2024-02-14T15:45:09;9.70;99.90
7159;DHT22;63175;52.374;13.132;2024-02-14T15:47:42;9.70;99.90